Nowshera Weather



Nowshera's Current Weather

Temprature 35o haze

haze

Rain: 0 %

Min Temprature35o
Max Temprature35o
Humidity36
Wind Speed5.1 m/h
Sun Rise05:06:06
Sun Set19:26:45
Current Time: 05-Jul-2020 18:16:35
Lat/Lon: 34.01, 72




Nowshera's Geo Location



Nowshera's Weather Forecast

Time Overall Temp Min Temp Max Temp Humidity Wind Speed Rain
05-Jul-2020 (Sun)
20:00:00 few clouds 35.580 35.580 36.180 30 3 m/h 0 %
23:00:00 clear sky 32.120 31.330 32.120 38 2.07 m/h 0 %
06-Jul-2020 (Mon)
02:00:00 light rain 30.900 30.620 30.900 41 1.24 m/h 24 %
05:00:00 clear sky 29.860 29.820 29.860 42 1.34 m/h 0 %
08:00:00 clear sky 32.580 32.580 32.580 32 2.36 m/h 0 %
11:00:00 clear sky 36.820 36.820 36.820 25 2.04 m/h 0 %
14:00:00 clear sky 40.000 40.000 40.000 19 1.95 m/h 0 %
17:00:00 clear sky 41.270 41.270 41.270 13 2.76 m/h 0 %
20:00:00 broken clouds 38.720 38.720 38.720 16 2.02 m/h 0 %
23:00:00 broken clouds 36.960 36.960 36.960 18 1.59 m/h 0 %
07-Jul-2020 (Tue)
02:00:00 broken clouds 34.690 34.690 34.690 22 1.61 m/h 0 %
05:00:00 broken clouds 32.720 32.720 32.720 26 2.36 m/h 0 %
08:00:00 clear sky 35.820 35.820 35.820 22 1.29 m/h 0 %
11:00:00 clear sky 40.630 40.630 40.630 16 2.04 m/h 0 %
14:00:00 clear sky 43.110 43.110 43.110 14 1.31 m/h 0 %
17:00:00 clear sky 43.860 43.860 43.860 13 2.08 m/h 0 %
20:00:00 few clouds 40.600 40.600 40.600 16 1.88 m/h 0 %
23:00:00 clear sky 38.920 38.920 38.920 18 0.35 m/h 0 %
08-Jul-2020 (Wed)
02:00:00 clear sky 36.050 36.050 36.050 21 1.24 m/h 0 %
05:00:00 clear sky 34.010 34.010 34.010 24 0.67 m/h 0 %
08:00:00 clear sky 37.710 37.710 37.710 24 3.39 m/h 0 %
11:00:00 clear sky 41.190 41.190 41.190 23 2.31 m/h 0 %
14:00:00 clear sky 44.140 44.140 44.140 15 1.33 m/h 0 %
17:00:00 clear sky 44.910 44.910 44.910 12 3.15 m/h 0 %
20:00:00 clear sky 41.990 41.990 41.990 15 2.4 m/h 0 %
23:00:00 clear sky 40.070 40.070 40.070 18 3.67 m/h 0 %
09-Jul-2020 (Thu)
02:00:00 clear sky 37.570 37.570 37.570 22 3.73 m/h 0 %
05:00:00 broken clouds 34.930 34.930 34.930 30 3.72 m/h 0 %
08:00:00 scattered clouds 37.270 37.270 37.270 37 4.16 m/h 0 %
11:00:00 few clouds 40.310 40.310 40.310 31 4.42 m/h 0 %
14:00:00 clear sky 43.860 43.860 43.860 21 3.49 m/h 0 %
17:00:00 clear sky 44.960 44.960 44.960 16 3.85 m/h 0 %
20:00:00 clear sky 35.830 35.830 35.830 30 11.66 m/h 0 %
23:00:00 light rain 30.750 30.750 30.750 39 2.66 m/h 173 %
10-Jul-2020 (Fri)
02:00:00 light rain 30.060 30.060 30.060 46 0.91 m/h 30 %
05:00:00 light rain 29.310 29.310 29.310 52 3.39 m/h 55 %
08:00:00 clear sky 31.810 31.810 31.810 46 0.97 m/h 0 %
11:00:00 clear sky 36.010 36.010 36.010 36 2.38 m/h 0 %
14:00:00 clear sky 40.080 40.080 40.080 26 1.45 m/h 0 %
17:00:00 clear sky 41.660 41.660 41.660 20 0.62 m/h 0 %

Famous Cities (60)